Time;durP1;ratioP1;P1;durP2;ratioP2;P2;SDS_P1;SDS_P2;PMS_P1;PMS_P2;Temp;Humidity;BMP_temperature;BMP_pressure;BME280_temperature;BME280_humidity;BME280_pressure;Samples;Min_cycle;Max_cycle;Signal;HPM_P1;HPM_P2
2022/04/05 00:01:45;;;;;;;5.57;1.48;;;;;;;;;;5069492;28;20045;-85
2022/04/05 00:04:12;;;;;;;8.23;1.77;;;;;;;;;;5052522;28;20385;-85
2022/04/05 00:06:38;;;;;;;5.95;1.50;;;;;;;;;;5069436;28;20495;-83
2022/04/05 00:09:04;;;;;;;8.05;1.67;;;;;;;;;;5068916;28;20048;-86
2022/04/05 00:11:30;;;;;;;7.32;1.75;;;;;;;;;;5051884;28;20033;-85
2022/04/05 00:13:56;;;;;;;8.38;1.90;;;;;;;;;;5068962;28;20044;-85
2022/04/05 00:16:22;;;;;;;7.75;1.80;;;;;;;;;;5068423;28;20037;-87
2022/04/05 00:18:48;;;;;;;9.90;1.88;;;;;;;;;;5069040;28;20044;-85
2022/04/05 00:21:15;;;;;;;6.90;1.80;;;;;;;;;;5049966;28;20445;-85
2022/04/05 00:23:41;;;;;;;6.80;1.40;;;;;;;;;;5052047;28;20083;-85
2022/04/05 00:26:07;;;;;;;8.07;1.67;;;;;;;;;;5069036;28;20476;-85
2022/04/05 00:28:33;;;;;;;7.25;1.65;;;;;;;;;;5068697;28;20402;-85
2022/04/05 00:30:59;;;;;;;7.93;1.38;;;;;;;;;;5068508;28;20065;-85
2022/04/05 00:33:25;;;;;;;5.75;1.20;;;;;;;;;;5068253;28;20048;-85
2022/04/05 00:35:51;;;;;;;6.07;1.20;;;;;;;;;;5052233;28;20093;-85
2022/04/05 00:38:18;;;;;;;3.63;1.10;;;;;;;;;;5067229;28;20496;-84
2022/04/05 00:40:44;;;;;;;4.15;1.02;;;;;;;;;;5068932;28;20129;-85
2022/04/05 00:43:10;;;;;;;3.22;0.90;;;;;;;;;;5068788;28;20074;-84
2022/04/05 00:45:36;;;;;;;3.90;1.00;;;;;;;;;;5068308;28;20032;-83
2022/04/05 00:48:04;;;;;;;6.03;0.88;;;;;;;;;;5069805;28;20043;-85
2022/04/05 00:50:32;;;;;;;7.00;1.10;;;;;;;;;;5068685;28;20068;-85
2022/04/05 00:53:02;;;;;;;5.65;0.95;;;;;;;;;;5068652;28;20036;-84
2022/04/05 00:55:29;;;;;;;5.38;1.10;;;;;;;;;;5068049;28;20119;-85
2022/04/05 00:57:57;;;;;;;6.90;1.00;;;;;;;;;;5068504;28;20044;-85
2022/04/05 01:00:23;;;;;;;3.65;0.80;;;;;;;;;;5067999;28;20090;-84
2022/04/05 01:02:50;;;;;;;5.63;0.77;;;;;;;;;;5035434;28;20555;-85
2022/04/05 01:05:18;;;;;;;3.80;0.80;;;;;;;;;;5052715;28;20045;-85
2022/04/05 01:07:45;;;;;;;5.95;1.00;;;;;;;;;;5052746;28;20123;-85
2022/04/05 01:10:12;;;;;;;3.78;1.23;;;;;;;;;;5069385;28;20036;-85
2022/04/05 01:12:38;;;;;;;5.07;1.05;;;;;;;;;;5068211;28;20480;-86
2022/04/05 01:15:05;;;;;;;5.00;1.20;;;;;;;;;;5051587;28;20067;-85
2022/04/05 01:17:31;;;;;;;7.53;1.10;;;;;;;;;;5067441;28;20115;-86
2022/04/05 01:19:57;;;;;;;3.95;1.02;;;;;;;;;;5067881;28;20095;-85
2022/04/05 01:22:24;;;;;;;4.40;1.00;;;;;;;;;;5068074;28;20396;-76
2022/04/05 01:24:51;;;;;;;7.72;1.30;;;;;;;;;;5067695;28;20087;-78
2022/04/05 01:27:19;;;;;;;4.50;1.30;;;;;;;;;;5067844;28;20048;-79
2022/04/05 01:29:45;;;;;;;6.47;1.40;;;;;;;;;;5068033;28;20044;-80
2022/04/05 01:32:11;;;;;;;6.20;1.25;;;;;;;;;;5068059;28;20033;-80
2022/04/05 01:34:38;;;;;;;7.35;1.50;;;;;;;;;;5068274;28;20048;-80
2022/04/05 01:37:05;;;;;;;11.00;1.60;;;;;;;;;;5067888;28;20168;-79
2022/04/05 01:39:33;;;;;;;7.13;1.35;;;;;;;;;;5051184;28;20540;-78
2022/04/05 01:42:03;;;;;;;8.00;1.70;;;;;;;;;;5067768;28;20052;-79
2022/04/05 01:44:31;;;;;;;8.63;1.80;;;;;;;;;;5050946;28;20040;-77
2022/04/05 01:46:57;;;;;;;5.80;1.60;;;;;;;;;;5067765;28;20048;-78
2022/04/05 01:49:23;;;;;;;7.93;1.50;;;;;;;;;;5052392;28;20041;-81
2022/04/05 01:51:50;;;;;;;7.82;1.60;;;;;;;;;;5071955;28;20396;-83
2022/04/05 01:54:17;;;;;;;7.57;1.60;;;;;;;;;;5071624;28;20040;-84
2022/04/05 01:56:51;;;;;;;4.70;1.48;;;;;;;;;;5071755;28;20531;-83
2022/04/05 01:59:18;;;;;;;4.30;1.35;;;;;;;;;;5053265;28;20403;-84
2022/04/05 02:01:44;;;;;;;6.93;1.60;;;;;;;;;;5067759;28;20048;-83
2022/04/05 02:04:11;;;;;;;10.50;1.92;;;;;;;;;;5070723;28;20048;-84
2022/04/05 02:06:37;;;;;;;5.75;1.60;;;;;;;;;;5070996;28;20036;-83
2022/04/05 02:09:04;;;;;;;9.43;1.73;;;;;;;;;;5072288;28;20119;-85
2022/04/05 02:11:30;;;;;;;4.47;1.70;;;;;;;;;;5053714;28;20484;-84
2022/04/05 02:13:56;;;;;;;6.70;1.77;;;;;;;;;;5053420;28;20491;-84
2022/04/05 02:16:22;;;;;;;6.60;2.00;;;;;;;;;;5071293;28;20066;-82
2022/04/05 02:18:48;;;;;;;7.60;2.20;;;;;;;;;;5071779;28;20109;-84
2022/04/05 02:21:15;;;;;;;6.72;2.00;;;;;;;;;;5071995;28;20090;-85
2022/04/05 02:23:41;;;;;;;7.65;1.80;;;;;;;;;;5071088;28;20053;-84
2022/04/05 02:26:08;;;;;;;7.15;2.38;;;;;;;;;;5071391;28;20240;-83
2022/04/05 02:28:34;;;;;;;6.78;2.33;;;;;;;;;;5071575;28;20067;-84
2022/04/05 02:31:00;;;;;;;10.25;2.40;;;;;;;;;;5071744;28;20037;-83
2022/04/05 02:33:26;;;;;;;6.65;2.13;;;;;;;;;;5070957;28;20045;-77
2022/04/05 02:35:52;;;;;;;9.27;2.70;;;;;;;;;;5054080;28;20039;-79
2022/04/05 02:38:19;;;;;;;8.00;2.50;;;;;;;;;;5070061;28;20052;-78
2022/04/05 02:40:45;;;;;;;12.30;3.10;;;;;;;;;;5070884;28;20092;-79
2022/04/05 02:43:11;;;;;;;9.98;2.72;;;;;;;;;;5070903;28;20587;-78
2022/04/05 02:45:37;;;;;;;8.63;2.70;;;;;;;;;;5071264;28;20050;-84
2022/04/05 02:48:04;;;;;;;12.27;3.15;;;;;;;;;;5072148;28;20495;-84
2022/04/05 02:50:30;;;;;;;8.52;3.13;;;;;;;;;;5070350;28;20028;-84
2022/04/05 02:52:56;;;;;;;9.93;3.30;;;;;;;;;;5053835;28;20451;-79
2022/04/05 02:55:22;;;;;;;16.17;3.65;;;;;;;;;;5070438;28;20059;-78
2022/04/05 02:57:50;;;;;;;12.45;3.83;;;;;;;;;;5070564;28;20161;-78
2022/04/05 03:00:17;;;;;;;13.40;3.47;;;;;;;;;;5052814;28;20036;-79
2022/04/05 03:02:43;;;;;;;11.50;3.00;;;;;;;;;;5070183;28;20134;-78
2022/04/05 03:05:10;;;;;;;10.55;3.08;;;;;;;;;;5054130;28;20115;-83
2022/04/05 03:07:37;;;;;;;12.18;3.03;;;;;;;;;;5070715;28;20545;-83
2022/04/05 03:10:07;;;;;;;8.45;3.13;;;;;;;;;;5070345;28;20036;-83
2022/04/05 03:12:35;;;;;;;8.52;2.90;;;;;;;;;;5069890;28;20102;-85
2022/04/05 03:15:01;;;;;;;11.13;3.45;;;;;;;;;;5054196;28;20484;-78
2022/04/05 03:17:28;;;;;;;11.32;3.45;;;;;;;;;;5069460;28;20040;-83
2022/04/05 03:19:54;;;;;;;10.35;2.97;;;;;;;;;;5070199;28;20047;-83
2022/04/05 03:22:20;;;;;;;12.75;3.20;;;;;;;;;;5069478;28;20044;-84
2022/04/05 03:24:46;;;;;;;14.57;3.20;;;;;;;;;;5053851;28;20059;-77
2022/04/05 03:27:13;;;;;;;10.27;3.35;;;;;;;;;;5070407;28;20040;-78
2022/04/05 03:29:39;;;;;;;8.05;2.83;;;;;;;;;;5053049;28;20541;-76
2022/04/05 03:32:05;;;;;;;12.45;3.40;;;;;;;;;;5069836;28;20392;-78
2022/04/05 03:34:31;;;;;;;8.52;3.13;;;;;;;;;;5069427;28;20459;-79
2022/04/05 03:36:57;;;;;;;13.55;3.47;;;;;;;;;;5069727;28;20149;-77
2022/04/05 03:39:24;;;;;;;9.40;2.97;;;;;;;;;;5069107;28;20036;-78
2022/04/05 03:41:50;;;;;;;10.52;3.00;;;;;;;;;;5052643;28;20072;-84
2022/04/05 03:44:16;;;;;;;9.75;3.17;;;;;;;;;;5069282;28;20036;-85
2022/04/05 03:46:42;;;;;;;12.25;3.08;;;;;;;;;;5070097;28;20094;-84
2022/04/05 03:49:09;;;;;;;9.00;3.00;;;;;;;;;;5052919;28;20039;-85
2022/04/05 03:51:35;;;;;;;13.55;3.13;;;;;;;;;;5052598;28;20040;-84
2022/04/05 03:54:01;;;;;;;10.25;2.85;;;;;;;;;;5069501;28;20510;-85
2022/04/05 03:56:27;;;;;;;15.02;3.00;;;;;;;;;;5052282;28;20131;-85
2022/04/05 03:58:53;;;;;;;13.70;2.80;;;;;;;;;;5052471;28;20047;-86
2022/04/05 04:01:19;;;;;;;10.25;2.53;;;;;;;;;;5066812;28;20037;-85
2022/04/05 04:03:45;;;;;;;16.15;2.97;;;;;;;;;;5068578;28;20139;-85
2022/04/05 04:06:11;;;;;;;10.55;2.53;;;;;;;;;;5035365;28;20040;-86
2022/04/05 04:08:37;;;;;;;11.98;2.22;;;;;;;;;;5052090;28;20034;-85
2022/04/05 04:11:03;;;;;;;6.90;2.22;;;;;;;;;;5069098;28;20040;-85
2022/04/05 04:13:30;;;;;;;6.82;2.38;;;;;;;;;;5068240;28;20037;-85
2022/04/05 04:15:56;;;;;;;6.53;2.03;;;;;;;;;;5068356;28;20170;-85
2022/04/05 04:18:23;;;;;;;9.75;1.95;;;;;;;;;;5068414;28;20048;-85
2022/04/05 04:20:49;;;;;;;9.07;2.15;;;;;;;;;;5068846;28;20044;-85
2022/04/05 04:23:15;;;;;;;9.38;1.80;;;;;;;;;;5069372;28;20548;-86
2022/04/05 04:25:42;;;;;;;6.25;1.70;;;;;;;;;;5068486;28;20072;-84
2022/04/05 04:28:08;;;;;;;6.63;1.52;;;;;;;;;;5068790;28;20383;-85
2022/04/05 04:30:35;;;;;;;7.13;1.48;;;;;;;;;;5051733;28;20075;-78
2022/04/05 04:33:02;;;;;;;9.65;1.70;;;;;;;;;;5035550;28;20087;-78
2022/04/05 04:35:28;;;;;;;8.35;1.70;;;;;;;;;;5068065;28;20040;-78
2022/04/05 04:37:55;;;;;;;10.05;1.63;;;;;;;;;;5067866;28;20056;-79
2022/04/05 04:40:21;;;;;;;6.00;1.50;;;;;;;;;;5050965;28;20049;-79
2022/04/05 04:42:47;;;;;;;8.18;1.48;;;;;;;;;;5068568;28;20076;-79
2022/04/05 04:45:14;;;;;;;9.35;1.38;;;;;;;;;;5068387;28;20063;-79
2022/04/05 04:47:40;;;;;;;7.90;1.90;;;;;;;;;;5068245;28;20055;-80
2022/04/05 04:50:07;;;;;;;6.85;1.50;;;;;;;;;;5052075;28;20037;-80
2022/04/05 04:52:33;;;;;;;7.00;1.60;;;;;;;;;;5068066;28;20051;-80
2022/04/05 04:54:59;;;;;;;6.60;1.15;;;;;;;;;;5051500;28;20044;-79
2022/04/05 04:57:26;;;;;;;6.43;1.20;;;;;;;;;;5067605;28;20044;-80
2022/04/05 04:59:52;;;;;;;3.78;1.23;;;;;;;;;;5051687;28;20078;-79
2022/04/05 05:02:22;;;;;;;4.03;1.10;;;;;;;;;;5068258;28;20044;-84
2022/04/05 05:04:48;;;;;;;5.70;1.20;;;;;;;;;;5068432;28;20515;-85
2022/04/05 05:07:15;;;;;;;7.45;1.50;;;;;;;;;;5068604;28;20080;-79
2022/04/05 05:09:41;;;;;;;5.20;1.20;;;;;;;;;;5067971;28;20048;-78
2022/04/05 05:12:10;;;;;;;4.78;1.52;;;;;;;;;;5068250;28;20170;-79
2022/04/05 05:14:36;;;;;;;4.90;1.10;;;;;;;;;;5050998;28;20488;-79
2022/04/05 05:17:02;;;;;;;8.30;1.38;;;;;;;;;;5067636;28;20040;-84
2022/04/05 05:19:28;;;;;;;8.60;1.30;;;;;;;;;;5067428;28;20036;-79
2022/04/05 05:21:54;;;;;;;8.50;1.10;;;;;;;;;;5068472;28;20043;-84
2022/04/05 05:24:20;;;;;;;8.23;1.30;;;;;;;;;;5052759;28;20036;-79
2022/04/05 05:26:46;;;;;;;4.20;1.17;;;;;;;;;;5072322;28;20047;-80
2022/04/05 05:29:13;;;;;;;7.97;1.23;;;;;;;;;;5072744;28;20127;-79
2022/04/05 05:31:39;;;;;;;6.57;1.20;;;;;;;;;;5071494;28;20078;-79
2022/04/05 05:34:05;;;;;;;6.47;1.52;;;;;;;;;;5071943;28;20036;-79
2022/04/05 05:36:31;;;;;;;6.43;1.20;;;;;;;;;;5071603;28;20059;-79
2022/04/05 05:38:58;;;;;;;7.13;1.95;;;;;;;;;;5071596;28;20052;-79
2022/04/05 05:41:24;;;;;;;4.78;1.10;;;;;;;;;;5071788;28;20492;-79
2022/04/05 05:43:50;;;;;;;6.57;1.05;;;;;;;;;;5054874;28;20151;-79
2022/04/05 05:46:16;;;;;;;3.72;1.08;;;;;;;;;;5071608;28;20037;-79
2022/04/05 05:48:42;;;;;;;4.28;1.15;;;;;;;;;;5069853;28;20033;-79
2022/04/05 05:51:09;;;;;;;3.92;1.00;;;;;;;;;;5071675;28;20044;-79
2022/04/05 05:53:35;;;;;;;5.55;1.40;;;;;;;;;;5071122;28;20040;-80
2022/04/05 05:56:01;;;;;;;4.05;0.90;;;;;;;;;;5070884;28;20044;-79
2022/04/05 05:58:28;;;;;;;4.63;0.85;;;;;;;;;;5054636;28;20052;-80
2022/04/05 06:00:55;;;;;;;3.88;0.80;;;;;;;;;;5071749;28;20097;-79
2022/04/05 06:03:21;;;;;;;4.70;0.70;;;;;;;;;;5071115;28;20037;-79
2022/04/05 06:05:47;;;;;;;4.20;0.90;;;;;;;;;;5071309;28;20036;-79
2022/04/05 06:08:14;;;;;;;4.45;0.80;;;;;;;;;;5054958;28;20043;-80
2022/04/05 06:10:40;;;;;;;4.22;0.90;;;;;;;;;;5071120;28;20109;-84
2022/04/05 06:13:07;;;;;;;3.97;0.80;;;;;;;;;;5072562;28;20522;-84
2022/04/05 06:15:33;;;;;;;2.63;0.80;;;;;;;;;;5070745;28;20094;-83
2022/04/05 06:17:59;;;;;;;3.63;0.90;;;;;;;;;;5054671;28;20545;-80
2022/04/05 06:20:27;;;;;;;3.80;1.38;;;;;;;;;;5054541;28;20036;-80
2022/04/05 06:22:54;;;;;;;2.92;0.90;;;;;;;;;;5071455;28;20075;-80
2022/04/05 06:25:22;;;;;;;4.75;0.95;;;;;;;;;;5053943;28;20090;-80
2022/04/05 06:27:48;;;;;;;4.97;0.90;;;;;;;;;;5054483;28;20044;-80
2022/04/05 06:30:15;;;;;;;3.63;1.00;;;;;;;;;;5071120;28;20117;-80
2022/04/05 06:32:42;;;;;;;5.22;1.00;;;;;;;;;;5070558;28;20484;-80
2022/04/05 06:35:09;;;;;;;4.63;1.02;;;;;;;;;;5069740;28;20119;-80
2022/04/05 06:37:36;;;;;;;4.85;1.15;;;;;;;;;;5053120;28;20059;-80
2022/04/05 06:40:03;;;;;;;2.30;0.80;;;;;;;;;;5070524;28;20048;-79
2022/04/05 06:42:29;;;;;;;5.38;1.20;;;;;;;;;;5070163;28;20041;-80
2022/04/05 06:44:56;;;;;;;5.95;0.95;;;;;;;;;;5037011;28;20033;-79
2022/04/05 06:47:22;;;;;;;3.58;0.93;;;;;;;;;;5053448;28;20091;-79
2022/04/05 06:49:48;;;;;;;3.03;0.80;;;;;;;;;;5070546;28;20173;-79
2022/04/05 06:52:15;;;;;;;2.53;0.82;;;;;;;;;;5070395;28;20089;-79
2022/04/05 06:54:41;;;;;;;5.43;0.82;;;;;;;;;;5053369;28;20055;-80
2022/04/05 06:57:07;;;;;;;4.60;1.00;;;;;;;;;;5070503;28;20043;-79
2022/04/05 06:59:34;;;;;;;4.18;0.90;;;;;;;;;;5069976;28;20040;-79
2022/04/05 07:02:00;;;;;;;3.58;0.70;;;;;;;;;;5070497;28;20048;-79
2022/04/05 07:04:26;;;;;;;3.80;0.75;;;;;;;;;;5069940;28;20120;-80
2022/04/05 07:06:52;;;;;;;3.72;0.75;;;;;;;;;;5070145;28;20584;-80
2022/04/05 07:09:18;;;;;;;2.00;0.90;;;;;;;;;;5070369;28;20075;-79
2022/04/05 07:11:44;;;;;;;5.38;0.90;;;;;;;;;;5070387;28;20472;-80
2022/04/05 07:14:10;;;;;;;4.40;0.88;;;;;;;;;;5069970;28;20040;-80
2022/04/05 07:16:36;;;;;;;4.78;1.17;;;;;;;;;;5069542;28;20075;-80
2022/04/05 07:19:02;;;;;;;4.57;1.20;;;;;;;;;;5069674;28;20455;-80
2022/04/05 07:21:28;;;;;;;3.10;1.00;;;;;;;;;;5069885;28;20047;-80
2022/04/05 07:23:55;;;;;;;5.53;1.25;;;;;;;;;;5069767;28;20571;-80
2022/04/05 07:26:21;;;;;;;5.40;1.13;;;;;;;;;;5069619;28;20102;-80
2022/04/05 07:28:48;;;;;;;5.20;1.30;;;;;;;;;;5069701;28;20123;-80
2022/04/05 07:31:15;;;;;;;3.72;1.13;;;;;;;;;;5069870;28;20539;-80
2022/04/05 07:33:41;;;;;;;6.03;1.20;;;;;;;;;;5069324;28;20045;-80
2022/04/05 07:36:08;;;;;;;5.50;1.50;;;;;;;;;;5052909;28;20452;-80
2022/04/05 07:38:34;;;;;;;4.03;1.27;;;;;;;;;;5068956;28;20090;-80
2022/04/05 07:41:00;;;;;;;4.05;1.10;;;;;;;;;;5052952;28;20036;-80
2022/04/05 07:43:27;;;;;;;4.28;1.20;;;;;;;;;;5068961;28;20123;-80
2022/04/05 07:45:54;;;;;;;2.17;1.20;;;;;;;;;;5069488;28;20040;-80
2022/04/05 07:48:21;;;;;;;2.97;1.00;;;;;;;;;;5053169;28;20041;-80
2022/04/05 07:50:47;;;;;;;3.75;1.40;;;;;;;;;;5070822;28;20472;-79
2022/04/05 07:53:13;;;;;;;3.38;1.00;;;;;;;;;;5053236;28;20373;-79
2022/04/05 07:55:40;;;;;;;1.83;0.80;;;;;;;;;;5069571;28;20043;-79
2022/04/05 07:58:06;;;;;;;3.17;0.95;;;;;;;;;;5052705;28;20062;-78
2022/04/05 08:00:33;;;;;;;4.00;0.90;;;;;;;;;;5069139;28;20080;-79
2022/04/05 08:02:59;;;;;;;2.63;1.00;;;;;;;;;;5069618;28;20040;-79
2022/04/05 08:05:25;;;;;;;3.03;0.80;;;;;;;;;;5068716;28;20050;-79
2022/04/05 08:07:52;;;;;;;1.60;0.70;;;;;;;;;;5052762;28;20488;-79
2022/04/05 08:10:18;;;;;;;1.50;0.73;;;;;;;;;;5070533;28;20036;-78
2022/04/05 08:12:45;;;;;;;1.95;0.70;;;;;;;;;;5068696;28;20040;-80
2022/04/05 08:15:12;;;;;;;1.58;0.90;;;;;;;;;;5068919;28;20036;-80
2022/04/05 08:17:39;;;;;;;1.70;0.60;;;;;;;;;;5052156;28;20460;-79
2022/04/05 08:20:05;;;;;;;4.25;0.60;;;;;;;;;;5068641;28;20044;-79
2022/04/05 08:22:31;;;;;;;2.33;0.70;;;;;;;;;;5068809;28;20094;-79
2022/04/05 08:24:58;;;;;;;3.28;0.90;;;;;;;;;;5068473;28;20079;-79
2022/04/05 08:27:24;;;;;;;2.25;0.80;;;;;;;;;;5051906;28;20396;-79
2022/04/05 08:29:50;;;;;;;1.85;1.00;;;;;;;;;;5068511;28;20037;-79
2022/04/05 08:32:16;;;;;;;1.95;0.80;;;;;;;;;;5066342;28;20033;-78
2022/04/05 08:34:45;;;;;;;1.67;0.80;;;;;;;;;;5068122;28;20055;-79
2022/04/05 08:37:11;;;;;;;2.47;1.15;;;;;;;;;;5069702;28;20119;-79
2022/04/05 08:39:38;;;;;;;2.70;0.93;;;;;;;;;;5051810;28;20045;-78
2022/04/05 08:42:05;;;;;;;3.30;1.00;;;;;;;;;;5052137;28;20048;-79
2022/04/05 08:44:31;;;;;;;2.15;1.00;;;;;;;;;;5068143;28;20441;-79
2022/04/05 08:47:00;;;;;;;2.30;0.90;;;;;;;;;;5068457;28;20392;-79
2022/04/05 08:49:27;;;;;;;2.28;1.10;;;;;;;;;;5067453;28;20042;-79
2022/04/05 08:51:54;;;;;;;1.65;1.10;;;;;;;;;;5051745;28;20113;-79
2022/04/05 08:54:20;;;;;;;2.95;1.20;;;;;;;;;;5067992;28;20048;-79
2022/04/05 08:56:47;;;;;;;2.08;0.90;;;;;;;;;;5068115;28;20041;-79
2022/04/05 08:59:13;;;;;;;3.42;0.93;;;;;;;;;;5067976;28;20053;-79
2022/04/05 09:01:40;;;;;;;2.70;0.80;;;;;;;;;;5051395;28;20099;-79
2022/04/05 09:04:06;;;;;;;1.83;0.88;;;;;;;;;;5068200;28;20041;-79
2022/04/05 09:06:33;;;;;;;2.10;1.00;;;;;;;;;;5068045;28;20147;-79
2022/04/05 09:09:07;;;;;;;2.08;0.90;;;;;;;;;;5052027;28;20442;-79
2022/04/05 09:11:33;;;;;;;1.02;0.63;;;;;;;;;;5068070;28;20033;-79
2022/04/05 09:14:00;;;;;;;1.63;0.80;;;;;;;;;;5067835;28;20040;-79
2022/04/05 09:16:31;;;;;;;1.70;0.95;;;;;;;;;;5050600;28;20476;-79
2022/04/05 09:18:59;;;;;;;3.15;1.30;;;;;;;;;;5068281;28;20086;-79
2022/04/05 09:21:25;;;;;;;2.10;1.00;;;;;;;;;;5068021;28;20044;-79
2022/04/05 09:23:52;;;;;;;2.42;1.30;;;;;;;;;;5034950;28;20068;-80
2022/04/05 09:26:19;;;;;;;2.65;1.50;;;;;;;;;;5068448;28;20040;-79
2022/04/05 09:28:46;;;;;;;2.70;1.60;;;;;;;;;;5051046;28;20062;-79
2022/04/05 09:31:13;;;;;;;2.97;1.73;;;;;;;;;;5068113;28;20127;-80
2022/04/05 09:34:00;;;;;;;4.10;2.05;;;;;;;;;;5067744;28;20037;-79
2022/04/05 09:36:32;;;;;;;4.07;2.08;;;;;;;;;;5067410;28;20052;-80
2022/04/05 09:39:09;;;;;;;3.10;2.00;;;;;;;;;;5067838;28;20056;-80
2022/04/05 09:41:35;;;;;;;3.97;2.50;;;;;;;;;;5067760;28;20369;-80
2022/04/05 09:44:02;;;;;;;4.65;2.70;;;;;;;;;;5067696;28;20032;-79
2022/04/05 09:46:29;;;;;;;5.25;2.85;;;;;;;;;;5050822;28;20488;-79
2022/04/05 09:49:06;;;;;;;5.47;2.70;;;;;;;;;;5051024;28;20037;-79
2022/04/05 09:51:36;;;;;;;4.18;3.03;;;;;;;;;;5066012;28;20043;-79
2022/04/05 09:54:03;;;;;;;5.32;3.70;;;;;;;;;;5051303;28;20129;-77
2022/04/05 09:56:33;;;;;;;5.55;3.60;;;;;;;;;;5068907;28;20480;-79
2022/04/05 09:59:04;;;;;;;8.07;4.38;;;;;;;;;;5065277;28;20037;-79
2022/04/05 10:01:31;;;;;;;5.40;3.22;;;;;;;;;;5050286;28;20041;-77
2022/04/05 10:04:08;;;;;;;5.07;3.10;;;;;;;;;;5051203;28;20500;-77
2022/04/05 10:06:38;;;;;;;5.47;3.17;;;;;;;;;;5067545;28;20426;-79
2022/04/05 10:09:04;;;;;;;5.97;3.22;;;;;;;;;;5067544;28;20036;-76
2022/04/05 10:11:32;;;;;;;4.53;3.13;;;;;;;;;;5070678;28;20032;-78
2022/04/05 10:13:59;;;;;;;4.50;2.95;;;;;;;;;;5071330;28;20040;-77
2022/04/05 10:16:28;;;;;;;5.63;3.53;;;;;;;;;;5054290;28;20044;-83
2022/04/05 10:19:04;;;;;;;5.60;3.17;;;;;;;;;;5070763;28;20055;-83
2022/04/05 10:21:34;;;;;;;5.22;3.45;;;;;;;;;;5052304;28;20051;-83
2022/04/05 10:24:01;;;;;;;4.75;3.22;;;;;;;;;;5071769;28;20040;-84
2022/04/05 10:26:28;;;;;;;6.13;3.70;;;;;;;;;;5037410;28;20045;-83
2022/04/05 10:28:56;;;;;;;4.75;3.20;;;;;;;;;;5072479;28;20040;-82
2022/04/05 10:31:41;;;;;;;5.70;3.70;;;;;;;;;;5072341;28;20373;-83
2022/04/05 10:34:07;;;;;;;5.30;3.30;;;;;;;;;;5071486;28;20048;-82
2022/04/05 10:36:33;;;;;;;5.70;3.08;;;;;;;;;;5071000;28;20036;-77
2022/04/05 10:39:11;;;;;;;5.95;3.28;;;;;;;;;;5054275;28;20055;-83
2022/04/05 10:41:37;;;;;;;4.50;2.88;;;;;;;;;;5071057;28;20055;-82
2022/04/05 10:44:19;;;;;;;6.20;3.45;;;;;;;;;;5071862;28;20044;-78
2022/04/05 10:46:53;;;;;;;5.28;3.28;;;;;;;;;;5071279;28;20044;-82
2022/04/05 10:49:39;;;;;;;5.68;3.05;;;;;;;;;;5054859;28;20038;-80
2022/04/05 10:52:09;;;;;;;6.32;4.07;;;;;;;;;;5072136;28;20093;-83
2022/04/05 10:54:40;;;;;;;8.20;4.20;;;;;;;;;;5070338;28;20143;-82
2022/04/05 10:57:26;;;;;;;6.32;3.95;;;;;;;;;;5071546;28;20091;-82
2022/04/05 11:00:12;;;;;;;7.50;4.35;;;;;;;;;;5071179;28;20492;-81
2022/04/05 11:02:46;;;;;;;8.10;4.60;;;;;;;;;;5072123;28;20510;-83
2022/04/05 11:05:15;;;;;;;8.15;4.72;;;;;;;;;;5072838;28;20119;-82
2022/04/05 11:07:53;;;;;;;8.45;4.20;;;;;;;;;;5071958;28;20044;-82
2022/04/05 11:10:26;;;;;;;8.18;4.95;;;;;;;;;;5071049;28;20111;-82
2022/04/05 11:13:04;;;;;;;7.70;4.82;;;;;;;;;;5071835;28;20044;-82
2022/04/05 11:15:40;;;;;;;10.25;5.15;;;;;;;;;;5070177;28;20041;-81
2022/04/05 11:18:07;;;;;;;10.48;5.00;;;;;;;;;;5065926;28;20047;-82
2022/04/05 11:20:34;;;;;;;14.30;5.40;;;;;;;;;;5070005;28;20119;-81
2022/04/05 11:23:01;;;;;;;9.23;5.03;;;;;;;;;;5069459;28;20067;-79
2022/04/05 11:25:28;;;;;;;10.07;4.80;;;;;;;;;;5053294;28;20124;-78
2022/04/05 11:27:55;;;;;;;10.05;4.25;;;;;;;;;;5070227;28;20127;-78
2022/04/05 11:30:37;;;;;;;9.40;4.85;;;;;;;;;;5053754;28;20518;-81
2022/04/05 11:33:09;;;;;;;9.30;3.90;;;;;;;;;;5069756;28;20441;-78
2022/04/05 11:35:46;;;;;;;12.00;4.63;;;;;;;;;;5070115;28;20029;-82
2022/04/05 11:38:19;;;;;;;10.48;5.15;;;;;;;;;;5068143;28;20078;-79
2022/04/05 11:40:46;;;;;;;11.52;4.88;;;;;;;;;;5069830;28;20056;-81
2022/04/05 11:43:27;;;;;;;9.95;5.38;;;;;;;;;;5070143;28;20377;-81
2022/04/05 11:45:55;;;;;;;13.07;5.18;;;;;;;;;;5069640;28;20041;-78
2022/04/05 11:48:21;;;;;;;13.35;5.88;;;;;;;;;;5052543;28;20075;-76
2022/04/05 11:50:48;;;;;;;11.05;5.03;;;;;;;;;;5069219;28;20043;-75
2022/04/05 11:53:24;;;;;;;11.38;5.20;;;;;;;;;;5069215;28;20037;-79
2022/04/05 11:56:27;;;;;;;18.20;6.43;;;;;;;;;;5053093;28;20495;-78
2022/04/05 11:58:53;;;;;;;10.52;4.28;;;;;;;;;;5011445;28;20041;-76
2022/04/05 12:01:29;;;;;;;7.32;3.65;;;;;;;;;;5057062;28;20051;-77
2022/04/05 12:03:55;;;;;;;;;;;;;;;;;;5069324;28;20061;-77
2022/04/05 12:06:27;;;;;;;6.50;3.55;;;;;;;;;;5052379;28;20158;-78
2022/04/05 12:08:54;;;;;;;7.82;3.67;;;;;;;;;;5068857;28;20040;-76
2022/04/05 12:11:21;;;;;;;10.13;4.45;;;;;;;;;;5068747;28;20119;-78
2022/04/05 12:13:52;;;;;;;13.45;4.82;;;;;;;;;;5052198;28;20041;-78
2022/04/05 12:16:19;;;;;;;19.25;6.20;;;;;;;;;;5069269;28;20515;-76
2022/04/05 12:18:46;;;;;;;12.90;6.13;;;;;;;;;;5052123;28;20141;-78
2022/04/05 12:21:12;;;;;;;17.45;5.95;;;;;;;;;;5069188;28;20396;-77
2022/04/05 12:23:39;;;;;;;20.63;6.85;;;;;;;;;;5068351;28;20036;-76
2022/04/05 12:26:11;;;;;;;16.38;6.93;;;;;;;;;;5068662;28;20028;-76
2022/04/05 12:28:42;;;;;;;17.98;6.38;;;;;;;;;;5068632;28;20072;-78
2022/04/05 12:31:10;;;;;;;18.63;8.10;;;;;;;;;;5052378;28;20083;-79
2022/04/05 12:33:36;;;;;;;20.58;7.47;;;;;;;;;;5067221;28;20123;-76
2022/04/05 12:36:03;;;;;;;16.85;6.22;;;;;;;;;;5068232;28;20120;-78
2022/04/05 12:38:30;;;;;;;19.52;6.68;;;;;;;;;;5067821;28;20061;-77
2022/04/05 12:40:57;;;;;;;14.73;6.60;;;;;;;;;;5068125;28;20087;-77
2022/04/05 12:43:23;;;;;;;14.55;6.22;;;;;;;;;;5068045;28;20045;-76
2022/04/05 12:45:50;;;;;;;16.65;6.35;;;;;;;;;;5069824;28;20036;-76
2022/04/05 12:48:17;;;;;;;16.65;6.75;;;;;;;;;;5068436;28;20075;-79
2022/04/05 12:50:46;;;;;;;17.23;6.13;;;;;;;;;;5067946;28;20044;-79
2022/04/05 12:53:13;;;;;;;19.15;6.57;;;;;;;;;;5068381;28;20070;-76
2022/04/05 12:55:40;;;;;;;16.48;6.20;;;;;;;;;;5069225;28;20064;-75
2022/04/05 12:58:07;;;;;;;17.42;6.38;;;;;;;;;;5068387;28;20036;-81
2022/04/05 13:00:42;;;;;;;14.25;5.97;;;;;;;;;;5068138;28;20051;-77
2022/04/05 13:03:10;;;;;;;14.85;5.63;;;;;;;;;;5051560;28;20044;-77
2022/04/05 13:08:27;;;;;;;16.35;5.47;;;;;;;;;;5068405;28;20044;-78
2022/04/05 13:10:53;;;;;;;16.60;6.30;;;;;;;;;;5068048;28;20044;-75
2022/04/05 13:13:27;;;;;;;17.95;5.60;;;;;;;;;;5051528;28;20044;-76
2022/04/05 13:16:02;;;;;;;13.77;5.85;;;;;;;;;;5068373;28;20079;-76
2022/04/05 13:18:42;;;;;;;14.48;6.03;;;;;;;;;;5067541;28;20049;-78
2022/04/05 13:21:09;;;;;;;15.32;5.53;;;;;;;;;;5067849;28;20048;-79
2022/04/05 13:23:37;;;;;;;15.95;6.05;;;;;;;;;;5051004;28;20075;-75
2022/04/05 13:26:05;;;;;;;12.50;5.72;;;;;;;;;;5068193;28;20036;-77
2022/04/05 13:28:37;;;;;;;12.75;5.95;;;;;;;;;;5065541;28;20115;-76
2022/04/05 13:31:11;;;;;;;12.02;5.40;;;;;;;;;;5069105;28;20052;-78
2022/04/05 13:33:37;;;;;;;11.75;6.28;;;;;;;;;;5068082;28;20041;-79
2022/04/05 13:36:03;;;;;;;16.02;6.22;;;;;;;;;;5067959;28;20043;-78
2022/04/05 13:38:29;;;;;;;15.82;6.15;;;;;;;;;;5050810;28;20048;-76
2022/04/05 13:40:56;;;;;;;14.90;5.50;;;;;;;;;;5050998;28;20056;-77
2022/04/05 13:43:22;;;;;;;17.55;6.35;;;;;;;;;;5067689;28;20094;-75
2022/04/05 13:45:48;;;;;;;13.88;6.13;;;;;;;;;;5069978;28;20483;-77
2022/04/05 13:48:15;;;;;;;14.05;6.00;;;;;;;;;;5055410;28;20048;-80
2022/04/05 13:50:41;;;;;;;14.70;6.30;;;;;;;;;;5071241;28;20085;-79
2022/04/05 13:53:07;;;;;;;14.10;6.30;;;;;;;;;;5071915;28;20032;-76
2022/04/05 13:55:33;;;;;;;16.67;6.75;;;;;;;;;;5071336;28;20507;-76
2022/04/05 13:58:00;;;;;;;16.27;6.88;;;;;;;;;;5071901;28;20036;-77
2022/04/05 14:00:26;;;;;;;14.32;6.30;;;;;;;;;;5054873;28;20447;-79
2022/04/05 14:02:54;;;;;;;12.40;6.60;;;;;;;;;;5054863;28;20128;-78
2022/04/05 14:05:20;;;;;;;17.58;6.35;;;;;;;;;;5071200;28;20048;-79
2022/04/05 14:07:46;;;;;;;14.65;6.50;;;;;;;;;;5071315;28;20216;-76
2022/04/05 14:10:15;;;;;;;13.13;5.75;;;;;;;;;;5071462;28;20036;-75
2022/04/05 14:12:41;;;;;;;15.68;6.90;;;;;;;;;;5071773;28;20506;-80
2022/04/05 14:15:10;;;;;;;13.30;6.68;;;;;;;;;;5071068;28;20048;-80
2022/04/05 14:17:37;;;;;;;16.17;6.20;;;;;;;;;;5071099;28;20082;-80
2022/04/05 14:20:05;;;;;;;17.02;6.55;;;;;;;;;;5071286;28;20075;-81
2022/04/05 14:22:31;;;;;;;12.10;6.15;;;;;;;;;;5054343;28;20041;-80
2022/04/05 14:24:58;;;;;;;15.77;7.00;;;;;;;;;;5054585;28;20388;-80
2022/04/05 14:27:24;;;;;;;16.80;6.80;;;;;;;;;;5071117;28;20119;-78
2022/04/05 14:29:50;;;;;;;19.17;6.47;;;;;;;;;;5070626;28;20044;-81
2022/04/05 14:32:16;;;;;;;17.75;6.55;;;;;;;;;;5070744;28;20085;-78
2022/04/05 14:34:42;;;;;;;15.02;6.65;;;;;;;;;;5070503;28;20051;-80
2022/04/05 14:37:09;;;;;;;16.63;6.68;;;;;;;;;;5070942;28;20381;-78
2022/04/05 14:39:35;;;;;;;13.13;6.28;;;;;;;;;;5070380;28;20048;-80
2022/04/05 14:42:01;;;;;;;12.90;6.15;;;;;;;;;;5070924;28;20067;-77
2022/04/05 14:44:28;;;;;;;15.77;6.25;;;;;;;;;;5037277;28;20506;-77